JIA2402 MDSD-MUHA
Flight info
| Callsign | JIA2402 |
|---|---|
| Flight time | 2h 3m |
| Altitude | 36000 |
| Route | RETAK DCT ALBBE M348 MEDKO UM348 UVA |
| Aircraft | CRJ9/M-SDFGIRWY/S |
Departure
| Time | 2026-05-07 17:22 |
|---|---|
| Airport | Las Américas International Airport (MDSD) |
Arrival
| Time | 2026-05-07 19:25 |
|---|---|
| Airport | José Martí International Airport (MUHA) |
| Time | Latitude | Longitude | Altitude | Speed | Heading |
|---|---|---|---|---|---|
| 2026-05-07 17:07 | 18.43159 | -69.67560 | 61 ft | 0 kts | 241° |
| 2026-05-07 17:14 | 18.43166 | -69.67545 | 59 ft | 2 kts | 248° |
| 2026-05-07 17:15 | 18.43171 | -69.67529 | 57 ft | 2 kts | 258° |
| 2026-05-07 17:15 | 18.43172 | -69.67512 | 55 ft | 2 kts | 274° |
| 2026-05-07 17:15 | 18.43169 | -69.67495 | 61 ft | 2 kts | 295° |
| 2026-05-07 17:15 | 18.43159 | -69.67481 | 61 ft | 2 kts | 317° |
| 2026-05-07 17:16 | 18.43148 | -69.67473 | 54 ft | 1 kts | 335° |
| 2026-05-07 17:16 | 18.43147 | -69.67472 | 53 ft | 0 kts | 338° |
| 2026-05-07 17:17 | 18.43157 | -69.67476 | 53 ft | 4 kts | 338° |
| 2026-05-07 17:17 | 18.43196 | -69.67492 | 54 ft | 8 kts | 343° |
| 2026-05-07 17:17 | 18.43263 | -69.67514 | 59 ft | 12 kts | 340° |
| 2026-05-07 17:18 | 18.43355 | -69.67523 | 57 ft | 16 kts | 35° |
| 2026-05-07 17:18 | 18.43440 | -69.67433 | 58 ft | 19 kts | 44° |
| 2026-05-07 17:18 | 18.43521 | -69.67347 | 59 ft | 12 kts | 46° |
| 2026-05-07 17:18 | 18.43604 | -69.67325 | 58 ft | 15 kts | 343° |
| 2026-05-07 17:19 | 18.43714 | -69.67365 | 55 ft | 19 kts | 341° |
| 2026-05-07 17:19 | 18.43850 | -69.67415 | 57 ft | 23 kts | 340° |
| 2026-05-07 17:19 | 18.44010 | -69.67475 | 57 ft | 26 kts | 341° |
| 2026-05-07 17:19 | 18.44156 | -69.67514 | 53 ft | 20 kts | 18° |
| 2026-05-07 17:20 | 18.44223 | -69.67481 | 55 ft | 9 kts | 25° |
| 2026-05-07 17:20 | 18.44294 | -69.67445 | 55 ft | 13 kts | 35° |
| 2026-05-07 17:20 | 18.44299 | -69.67389 | 55 ft | 7 kts | 134° |
| 2026-05-07 17:20 | 18.44268 | -69.67373 | 55 ft | 0 kts | 160° |
| 2026-05-07 17:21 | 18.44241 | -69.67363 | 55 ft | 22 kts | 160° |
| 2026-05-07 17:21 | 18.43841 | -69.67216 | 56 ft | 99 kts | 161° |
| 2026-05-07 17:21 | 18.42985 | -69.66908 | 59 ft | 159 kts | 162° |
| 2026-05-07 17:21 | 18.41855 | -69.66511 | 577 ft | 175 kts | 161° |
| 2026-05-07 17:22 | 18.40670 | -69.66002 | 1330 ft | 193 kts | 157° |
| 2026-05-07 17:22 | 18.39333 | -69.65469 | 1999 ft | 214 kts | 160° |
| 2026-05-07 17:22 | 18.37825 | -69.65259 | 2608 ft | 235 kts | 191° |
| 2026-05-07 17:22 | 18.36385 | -69.66192 | 3125 ft | 259 kts | 231° |
| 2026-05-07 17:23 | 18.35562 | -69.67925 | 3805 ft | 272 kts | 250° |
| 2026-05-07 17:23 | 18.34992 | -69.69858 | 4603 ft | 276 kts | 254° |
| 2026-05-07 17:23 | 18.34651 | -69.71161 | 5185 ft | 279 kts | 255° |
| 2026-05-07 17:23 | 18.34257 | -69.72688 | 5884 ft | 281 kts | 254° |
| 2026-05-07 17:24 | 18.33904 | -69.74065 | 6398 ft | 286 kts | 254° |
| 2026-05-07 17:24 | 18.33361 | -69.76062 | 7202 ft | 291 kts | 252° |
| 2026-05-07 17:24 | 18.32853 | -69.78134 | 7975 ft | 292 kts | 265° |
| 2026-05-07 17:24 | 18.32858 | -69.80273 | 8816 ft | 295 kts | 275° |
| 2026-05-07 17:25 | 18.33077 | -69.82426 | 9648 ft | 296 kts | 277° |
| 2026-05-07 17:25 | 18.33352 | -69.84574 | 10447 ft | 297 kts | 278° |
| 2026-05-07 17:25 | 18.33625 | -69.86739 | 11177 ft | 299 kts | 277° |
| 2026-05-07 17:25 | 18.33864 | -69.88951 | 11923 ft | 302 kts | 277° |
| 2026-05-07 17:26 | 18.34069 | -69.91123 | 12653 ft | 303 kts | 277° |
| 2026-05-07 17:26 | 18.34280 | -69.93349 | 13342 ft | 307 kts | 277° |
| 2026-05-07 17:26 | 18.34486 | -69.95586 | 14064 ft | 309 kts | 277° |
| 2026-05-07 17:26 | 18.34703 | -69.97852 | 14640 ft | 313 kts | 277° |
| 2026-05-07 17:27 | 18.34917 | -70.00145 | 15148 ft | 322 kts | 277° |
| 2026-05-07 17:27 | 18.35153 | -70.02581 | 15150 ft | 347 kts | 277° |
| 2026-05-07 17:27 | 18.35396 | -70.05190 | 15190 ft | 369 kts | 277° |
| 2026-05-07 17:27 | 18.35657 | -70.07956 | 15277 ft | 389 kts | 276° |
| 2026-05-07 17:28 | 18.35926 | -70.10855 | 15426 ft | 406 kts | 277° |
| 2026-05-07 17:28 | 18.36210 | -70.13851 | 15810 ft | 413 kts | 277° |
| 2026-05-07 17:28 | 18.36488 | -70.16855 | 16523 ft | 412 kts | 277° |
| 2026-05-07 17:28 | 18.36771 | -70.19860 | 17188 ft | 413 kts | 277° |
| 2026-05-07 17:29 | 18.37048 | -70.22869 | 17839 ft | 413 kts | 276° |
| 2026-05-07 17:29 | 18.37330 | -70.25878 | 18471 ft | 413 kts | 277° |
| 2026-05-07 17:29 | 18.37607 | -70.28888 | 19020 ft | 413 kts | 277° |
| 2026-05-07 17:29 | 18.37879 | -70.31898 | 19572 ft | 413 kts | 277° |
| 2026-05-07 17:30 | 18.38166 | -70.34906 | 20087 ft | 413 kts | 278° |
| 2026-05-07 17:30 | 18.38453 | -70.37917 | 20623 ft | 413 kts | 278° |
| 2026-05-07 17:30 | 18.38736 | -70.40930 | 21151 ft | 413 kts | 278° |
| 2026-05-07 17:30 | 18.38993 | -70.43940 | 21692 ft | 412 kts | 278° |
| 2026-05-07 17:31 | 18.39250 | -70.46949 | 22191 ft | 413 kts | 278° |
| 2026-05-07 17:31 | 18.39515 | -70.49961 | 22691 ft | 413 kts | 279° |
| 2026-05-07 17:31 | 18.39788 | -70.52973 | 23212 ft | 413 kts | 279° |
| 2026-05-07 17:31 | 18.40066 | -70.55982 | 23721 ft | 412 kts | 279° |
| 2026-05-07 17:32 | 18.40347 | -70.58980 | 24165 ft | 411 kts | 280° |
| 2026-05-07 17:32 | 18.40625 | -70.61971 | 24610 ft | 410 kts | 279° |
| 2026-05-07 17:32 | 18.40899 | -70.64958 | 25014 ft | 410 kts | 279° |
| 2026-05-07 17:32 | 18.41169 | -70.67950 | 25260 ft | 415 kts | 279° |
| 2026-05-07 17:33 | 18.41448 | -70.71014 | 25263 ft | 426 kts | 279° |
| 2026-05-07 17:33 | 18.41734 | -70.74162 | 25284 ft | 437 kts | 279° |
| 2026-05-07 17:33 | 18.42024 | -70.77381 | 25382 ft | 445 kts | 279° |
| 2026-05-07 17:33 | 18.42313 | -70.80638 | 25700 ft | 445 kts | 279° |
| 2026-05-07 17:34 | 18.42593 | -70.83843 | 26406 ft | 436 kts | 279° |
| 2026-05-07 17:34 | 18.42871 | -70.86978 | 26819 ft | 435 kts | 279° |
| 2026-05-07 17:34 | 18.43157 | -70.90148 | 27168 ft | 435 kts | 279° |
| 2026-05-07 17:34 | 18.43444 | -70.93313 | 27555 ft | 434 kts | 279° |
| 2026-05-07 17:35 | 18.43729 | -70.96474 | 27939 ft | 433 kts | 279° |
| 2026-05-07 17:35 | 18.44009 | -70.99629 | 28321 ft | 432 kts | 279° |
| 2026-05-07 17:35 | 18.44286 | -71.02777 | 28699 ft | 431 kts | 279° |
| 2026-05-07 17:35 | 18.44564 | -71.05919 | 29066 ft | 430 kts | 279° |
| 2026-05-07 17:36 | 18.44841 | -71.09052 | 29424 ft | 430 kts | 279° |
| 2026-05-07 17:36 | 18.45118 | -71.12181 | 29788 ft | 429 kts | 279° |
| 2026-05-07 17:36 | 18.45393 | -71.15306 | 30131 ft | 428 kts | 279° |
| 2026-05-07 17:36 | 18.45666 | -71.18424 | 30428 ft | 427 kts | 279° |
| 2026-05-07 17:37 | 18.45936 | -71.21530 | 30717 ft | 426 kts | 279° |
| 2026-05-07 17:37 | 18.46207 | -71.24637 | 30966 ft | 426 kts | 279° |
| 2026-05-07 17:37 | 18.46506 | -71.27733 | 31235 ft | 423 kts | 284° |
| 2026-05-07 17:37 | 18.47292 | -71.30678 | 31461 ft | 415 kts | 295° |
| 2026-05-07 17:38 | 18.48392 | -71.33476 | 31751 ft | 413 kts | 296° |
| 2026-05-07 17:38 | 18.49238 | -71.36386 | 31978 ft | 417 kts | 290° |
| 2026-05-07 17:38 | 18.50304 | -71.39178 | 32157 ft | 408 kts | 306° |
| 2026-05-07 17:38 | 18.52005 | -71.41505 | 32434 ft | 397 kts | 320° |
| 2026-05-07 17:39 | 18.54198 | -71.43219 | 32633 ft | 390 kts | 336° |
| 2026-05-07 17:39 | 18.56713 | -71.44209 | 32833 ft | 385 kts | 351° |
| 2026-05-07 17:39 | 18.59363 | -71.44419 | 33046 ft | 382 kts | 6° |
| 2026-05-07 17:39 | 18.61995 | -71.44074 | 33251 ft | 381 kts | 7° |
| 2026-05-07 17:40 | 18.64627 | -71.43804 | 33534 ft | 380 kts | 2° |
| 2026-05-07 17:40 | 18.67265 | -71.43872 | 33800 ft | 379 kts | 354° |
| 2026-05-07 17:40 | 18.69862 | -71.44403 | 33978 ft | 382 kts | 346° |
| 2026-05-07 17:40 | 18.72357 | -71.45353 | 34220 ft | 383 kts | 339° |
| 2026-05-07 17:41 | 18.77163 | -71.47802 | 34613 ft | 381 kts | 337° |
| 2026-05-07 17:41 | 18.79567 | -71.48972 | 34795 ft | 380 kts | 339° |
| 2026-05-07 17:41 | 18.81996 | -71.50067 | 34952 ft | 379 kts | 340° |
| 2026-05-07 17:42 | 18.84392 | -71.51132 | 35126 ft | 378 kts | 340° |
| 2026-05-07 17:42 | 18.86809 | -71.52239 | 35256 ft | 380 kts | 339° |
| 2026-05-07 17:42 | 18.89220 | -71.53363 | 35427 ft | 379 kts | 339° |
| 2026-05-07 17:42 | 18.91631 | -71.54484 | 35594 ft | 378 kts | 339° |
| 2026-05-07 17:43 | 18.94036 | -71.55601 | 35750 ft | 377 kts | 339° |
| 2026-05-07 17:43 | 18.96444 | -71.56718 | 35787 ft | 379 kts | 339° |
| 2026-05-07 17:43 | 19.01298 | -71.58974 | 35898 ft | 383 kts | 339° |
| 2026-05-07 17:44 | 19.06194 | -71.61250 | 36029 ft | 387 kts | 339° |
| 2026-05-07 17:44 | 19.11157 | -71.63559 | 36062 ft | 393 kts | 339° |
| 2026-05-07 17:45 | 19.16209 | -71.65896 | 36062 ft | 400 kts | 339° |
| 2026-05-07 17:45 | 19.21317 | -71.68277 | 36078 ft | 402 kts | 339° |
| 2026-05-07 17:46 | 19.26443 | -71.70667 | 36061 ft | 403 kts | 339° |
| 2026-05-07 17:46 | 19.31588 | -71.73068 | 36057 ft | 405 kts | 339° |
| 2026-05-07 17:47 | 19.36753 | -71.75480 | 36052 ft | 406 kts | 339° |
| 2026-05-07 17:47 | 19.41934 | -71.77901 | 36052 ft | 407 kts | 339° |
| 2026-05-07 17:48 | 19.47129 | -71.80328 | 36056 ft | 409 kts | 338° |
| 2026-05-07 17:48 | 19.52343 | -71.82768 | 36049 ft | 410 kts | 339° |
| 2026-05-07 17:49 | 19.57571 | -71.85215 | 36043 ft | 411 kts | 338° |
| 2026-05-07 17:49 | 19.62809 | -71.87670 | 36042 ft | 412 kts | 338° |
| 2026-05-07 17:50 | 19.68060 | -71.90132 | 36043 ft | 413 kts | 338° |
| 2026-05-07 17:50 | 19.73325 | -71.92602 | 36034 ft | 414 kts | 338° |
| 2026-05-07 17:51 | 19.78596 | -71.95076 | 36035 ft | 415 kts | 338° |
| 2026-05-07 17:51 | 19.83875 | -71.97557 | 36037 ft | 415 kts | 338° |
| 2026-05-07 17:52 | 19.89162 | -72.00041 | 36043 ft | 416 kts | 338° |
| 2026-05-07 17:52 | 19.94458 | -72.02534 | 36047 ft | 417 kts | 338° |
| 2026-05-07 17:53 | 19.99722 | -72.05014 | 36046 ft | 417 kts | 338° |
| 2026-05-07 17:53 | 20.05035 | -72.07518 | 36044 ft | 418 kts | 338° |
| 2026-05-07 17:54 | 20.10351 | -72.10024 | 36046 ft | 418 kts | 338° |
| 2026-05-07 17:54 | 20.15675 | -72.12539 | 36046 ft | 419 kts | 338° |
| 2026-05-07 17:55 | 20.21003 | -72.15054 | 36053 ft | 419 kts | 338° |
| 2026-05-07 17:55 | 20.26337 | -72.17575 | 36050 ft | 419 kts | 338° |
| 2026-05-07 17:56 | 20.31666 | -72.20096 | 36044 ft | 419 kts | 338° |
| 2026-05-07 17:56 | 20.36892 | -72.22851 | 36047 ft | 422 kts | 326° |
| 2026-05-07 17:57 | 20.39044 | -72.24987 | 36064 ft | 426 kts | 313° |
| 2026-05-07 17:57 | 20.40322 | -72.26631 | 36063 ft | 427 kts | 312° |
| 2026-05-07 17:57 | 20.44483 | -72.32516 | 36060 ft | 429 kts | 308° |
| 2026-05-07 17:58 | 20.45970 | -72.35283 | 36056 ft | 433 kts | 297° |
| 2026-05-07 17:58 | 20.47079 | -72.38280 | 36063 ft | 435 kts | 294° |
| 2026-05-07 17:58 | 20.49150 | -72.44351 | 36051 ft | 435 kts | 295° |
| 2026-05-07 17:59 | 20.51442 | -72.50319 | 36056 ft | 435 kts | 296° |
| 2026-05-07 17:59 | 20.53740 | -72.56289 | 36043 ft | 435 kts | 296° |
| 2026-05-07 18:00 | 20.56033 | -72.62261 | 36042 ft | 435 kts | 296° |
| 2026-05-07 18:00 | 20.58324 | -72.68234 | 36053 ft | 435 kts | 296° |
| 2026-05-07 18:01 | 20.60599 | -72.74175 | 36047 ft | 435 kts | 296° |
| 2026-05-07 18:01 | 20.62889 | -72.80157 | 36050 ft | 435 kts | 296° |
| 2026-05-07 18:02 | 20.66322 | -72.89139 | 36048 ft | 436 kts | 296° |
| 2026-05-07 18:03 | 20.68609 | -72.95132 | 36046 ft | 436 kts | 296° |
| 2026-05-07 18:03 | 20.70896 | -73.01131 | 36051 ft | 436 kts | 296° |
| 2026-05-07 18:04 | 20.73180 | -73.07130 | 36056 ft | 436 kts | 296° |
| 2026-05-07 18:04 | 20.75463 | -73.13134 | 36048 ft | 436 kts | 296° |
| 2026-05-07 18:05 | 20.77744 | -73.19141 | 36047 ft | 436 kts | 295° |
| 2026-05-07 18:05 | 20.80024 | -73.25154 | 36050 ft | 437 kts | 295° |
| 2026-05-07 18:06 | 20.82303 | -73.31172 | 36040 ft | 437 kts | 295° |
| 2026-05-07 18:06 | 20.84583 | -73.37188 | 36044 ft | 437 kts | 295° |
| 2026-05-07 18:07 | 20.86856 | -73.43211 | 36050 ft | 437 kts | 295° |
| 2026-05-07 18:07 | 20.89115 | -73.49196 | 36048 ft | 437 kts | 295° |
| 2026-05-07 18:08 | 20.91388 | -73.55228 | 36046 ft | 437 kts | 295° |
| 2026-05-07 18:08 | 20.93659 | -73.61261 | 36048 ft | 437 kts | 295° |
| 2026-05-07 18:09 | 20.95931 | -73.67299 | 36046 ft | 438 kts | 295° |
| 2026-05-07 18:09 | 20.98110 | -73.73386 | 36049 ft | 439 kts | 292° |
| 2026-05-07 18:10 | 21.00190 | -73.79522 | 36052 ft | 439 kts | 293° |
| 2026-05-07 18:10 | 21.02272 | -73.85663 | 36053 ft | 439 kts | 293° |
| 2026-05-07 18:11 | 21.04353 | -73.91808 | 36054 ft | 439 kts | 293° |
| 2026-05-07 18:11 | 21.06433 | -73.97953 | 36052 ft | 439 kts | 293° |
| 2026-05-07 18:12 | 21.08512 | -74.04106 | 36049 ft | 439 kts | 292° |
| 2026-05-07 18:12 | 21.10253 | -74.09258 | 36051 ft | 439 kts | 292° |
| 2026-05-07 18:13 | 21.12326 | -74.15411 | 36053 ft | 439 kts | 292° |
| 2026-05-07 18:13 | 21.14398 | -74.21567 | 36052 ft | 439 kts | 292° |
| 2026-05-07 18:14 | 21.16455 | -74.27687 | 36050 ft | 439 kts | 292° |
| 2026-05-07 18:14 | 21.18538 | -74.33890 | 36052 ft | 440 kts | 292° |
| 2026-05-07 18:15 | 21.20597 | -74.40011 | 36052 ft | 440 kts | 292° |
| 2026-05-07 18:15 | 21.22651 | -74.46180 | 36054 ft | 440 kts | 292° |
| 2026-05-07 18:16 | 21.24685 | -74.52362 | 36054 ft | 440 kts | 292° |
| 2026-05-07 18:16 | 21.26766 | -74.58524 | 36052 ft | 440 kts | 292° |
| 2026-05-07 18:17 | 21.28844 | -74.64692 | 36050 ft | 440 kts | 292° |
| 2026-05-07 18:17 | 21.30910 | -74.70870 | 36050 ft | 440 kts | 292° |
| 2026-05-07 18:18 | 21.32978 | -74.77049 | 36050 ft | 440 kts | 292° |
| 2026-05-07 18:18 | 21.35046 | -74.83232 | 36050 ft | 440 kts | 292° |
| 2026-05-07 18:19 | 21.37110 | -74.89416 | 36049 ft | 440 kts | 292° |
| 2026-05-07 18:19 | 21.39172 | -74.95605 | 36049 ft | 441 kts | 292° |
| 2026-05-07 18:20 | 21.41233 | -75.01796 | 36054 ft | 441 kts | 292° |
| 2026-05-07 18:20 | 21.43294 | -75.07993 | 36047 ft | 441 kts | 292° |
| 2026-05-07 18:21 | 21.45350 | -75.14187 | 36052 ft | 441 kts | 292° |
| 2026-05-07 18:21 | 21.47392 | -75.20349 | 36055 ft | 441 kts | 292° |
| 2026-05-07 18:22 | 21.49445 | -75.26552 | 36051 ft | 441 kts | 292° |
| 2026-05-07 18:22 | 21.51496 | -75.32757 | 36050 ft | 441 kts | 292° |
| 2026-05-07 18:23 | 21.53545 | -75.38962 | 36048 ft | 441 kts | 292° |
| 2026-05-07 18:23 | 21.55594 | -75.45174 | 36046 ft | 441 kts | 291° |
| 2026-05-07 18:24 | 21.57639 | -75.51387 | 36048 ft | 441 kts | 291° |
| 2026-05-07 18:24 | 21.59679 | -75.57601 | 36047 ft | 441 kts | 291° |
| 2026-05-07 18:25 | 21.61720 | -75.63814 | 36045 ft | 441 kts | 291° |
| 2026-05-07 18:25 | 21.63744 | -75.69989 | 36047 ft | 441 kts | 291° |
| 2026-05-07 18:26 | 21.65780 | -75.76207 | 36048 ft | 441 kts | 291° |
| 2026-05-07 18:26 | 21.67815 | -75.82430 | 36051 ft | 441 kts | 291° |
| 2026-05-07 18:27 | 21.69832 | -75.88612 | 36051 ft | 441 kts | 291° |
| 2026-05-07 18:27 | 21.71861 | -75.94838 | 36049 ft | 441 kts | 291° |
| 2026-05-07 18:28 | 21.73889 | -76.01067 | 36051 ft | 441 kts | 291° |
| 2026-05-07 18:28 | 21.75914 | -76.07296 | 36051 ft | 441 kts | 291° |
| 2026-05-07 18:29 | 21.77938 | -76.13532 | 36051 ft | 441 kts | 291° |
| 2026-05-07 18:29 | 21.79961 | -76.19767 | 36049 ft | 441 kts | 291° |
| 2026-05-07 18:30 | 21.81978 | -76.26005 | 36049 ft | 441 kts | 291° |
| 2026-05-07 18:30 | 21.83994 | -76.32245 | 36050 ft | 441 kts | 291° |
| 2026-05-07 18:31 | 21.86010 | -76.38487 | 36049 ft | 441 kts | 291° |
| 2026-05-07 18:31 | 21.88021 | -76.44729 | 36048 ft | 442 kts | 291° |
| 2026-05-07 18:32 | 21.90032 | -76.50977 | 36046 ft | 442 kts | 291° |
| 2026-05-07 18:32 | 21.92041 | -76.57227 | 36048 ft | 442 kts | 291° |
| 2026-05-07 18:33 | 21.94045 | -76.63478 | 36049 ft | 441 kts | 291° |
| 2026-05-07 18:33 | 21.96034 | -76.69686 | 36048 ft | 441 kts | 291° |
| 2026-05-07 18:34 | 21.98035 | -76.75941 | 36044 ft | 441 kts | 291° |
| 2026-05-07 18:34 | 22.00033 | -76.82196 | 36045 ft | 441 kts | 291° |
| 2026-05-07 18:35 | 22.02029 | -76.88452 | 36044 ft | 441 kts | 291° |
| 2026-05-07 18:35 | 22.04022 | -76.94708 | 36045 ft | 441 kts | 291° |
| 2026-05-07 18:36 | 22.06012 | -77.00968 | 36042 ft | 441 kts | 291° |
| 2026-05-07 18:36 | 22.07998 | -77.07229 | 36047 ft | 441 kts | 290° |
| 2026-05-07 18:37 | 22.09982 | -77.13494 | 36046 ft | 441 kts | 290° |
| 2026-05-07 18:37 | 22.11964 | -77.19759 | 36048 ft | 441 kts | 290° |
| 2026-05-07 18:38 | 22.13946 | -77.26028 | 36039 ft | 441 kts | 290° |
| 2026-05-07 18:38 | 22.15922 | -77.32298 | 36041 ft | 441 kts | 290° |
| 2026-05-07 18:39 | 22.17897 | -77.38569 | 36043 ft | 442 kts | 290° |
| 2026-05-07 18:39 | 22.19872 | -77.44843 | 36042 ft | 442 kts | 290° |
| 2026-05-07 18:40 | 22.21845 | -77.51120 | 36045 ft | 442 kts | 290° |
| 2026-05-07 18:40 | 22.23815 | -77.57400 | 36045 ft | 442 kts | 290° |
| 2026-05-07 18:41 | 22.25784 | -77.63682 | 36044 ft | 442 kts | 290° |
| 2026-05-07 18:41 | 22.27748 | -77.69966 | 36045 ft | 442 kts | 290° |
| 2026-05-07 18:42 | 22.29712 | -77.76253 | 36042 ft | 442 kts | 290° |
| 2026-05-07 18:42 | 22.31673 | -77.82542 | 36043 ft | 442 kts | 290° |
| 2026-05-07 18:43 | 22.33631 | -77.88834 | 36046 ft | 442 kts | 290° |
| 2026-05-07 18:43 | 22.35588 | -77.95129 | 36045 ft | 442 kts | 290° |
| 2026-05-07 18:44 | 22.37545 | -78.01422 | 36036 ft | 442 kts | 290° |
| 2026-05-07 18:44 | 22.39495 | -78.07720 | 36037 ft | 442 kts | 290° |
| 2026-05-07 18:45 | 22.41442 | -78.14017 | 36042 ft | 442 kts | 290° |
| 2026-05-07 18:45 | 22.43392 | -78.20319 | 36045 ft | 442 kts | 290° |
| 2026-05-07 18:46 | 22.45336 | -78.26624 | 36040 ft | 442 kts | 290° |
| 2026-05-07 18:46 | 22.47112 | -78.32992 | 36039 ft | 443 kts | 285° |
| 2026-05-07 18:47 | 22.48368 | -78.39521 | 36038 ft | 444 kts | 282° |
| 2026-05-07 18:47 | 22.49501 | -78.46084 | 36037 ft | 444 kts | 283° |
| 2026-05-07 18:48 | 22.50718 | -78.52626 | 36036 ft | 444 kts | 283° |
| 2026-05-07 18:48 | 22.51929 | -78.59127 | 36037 ft | 444 kts | 283° |
| 2026-05-07 18:49 | 22.53145 | -78.65667 | 36036 ft | 444 kts | 283° |
| 2026-05-07 18:49 | 22.54361 | -78.72216 | 36033 ft | 444 kts | 283° |
| 2026-05-07 18:50 | 22.55571 | -78.78764 | 36035 ft | 444 kts | 283° |
| 2026-05-07 18:50 | 22.56779 | -78.85312 | 36039 ft | 444 kts | 283° |
| 2026-05-07 18:51 | 22.57987 | -78.91860 | 36039 ft | 444 kts | 283° |
| 2026-05-07 18:51 | 22.59191 | -78.98414 | 36039 ft | 444 kts | 283° |
| 2026-05-07 18:52 | 22.60391 | -79.04970 | 36040 ft | 444 kts | 283° |
| 2026-05-07 18:52 | 22.61593 | -79.11525 | 36038 ft | 444 kts | 283° |
| 2026-05-07 18:53 | 22.62788 | -79.18082 | 36040 ft | 444 kts | 283° |
| 2026-05-07 18:53 | 22.63984 | -79.24644 | 36037 ft | 444 kts | 283° |
| 2026-05-07 18:54 | 22.65175 | -79.31211 | 36037 ft | 444 kts | 283° |
| 2026-05-07 18:54 | 22.66363 | -79.37777 | 36040 ft | 445 kts | 283° |
| 2026-05-07 18:55 | 22.67552 | -79.44347 | 36033 ft | 445 kts | 283° |
| 2026-05-07 18:55 | 22.68737 | -79.50920 | 36037 ft | 445 kts | 282° |
| 2026-05-07 18:56 | 22.69918 | -79.57495 | 36031 ft | 445 kts | 282° |
| 2026-05-07 18:56 | 22.71100 | -79.64072 | 36031 ft | 445 kts | 282° |
| 2026-05-07 18:57 | 22.72261 | -79.70613 | 36032 ft | 445 kts | 282° |
| 2026-05-07 18:57 | 22.73456 | -79.77238 | 36032 ft | 445 kts | 282° |
| 2026-05-07 18:58 | 22.74622 | -79.83830 | 36030 ft | 446 kts | 282° |
| 2026-05-07 18:58 | 22.75782 | -79.90376 | 36027 ft | 446 kts | 282° |
| 2026-05-07 18:59 | 22.76949 | -79.96972 | 36026 ft | 446 kts | 282° |
| 2026-05-07 18:59 | 22.78113 | -80.03572 | 36020 ft | 446 kts | 282° |
| 2026-05-07 19:00 | 22.79274 | -80.10171 | 36021 ft | 446 kts | 282° |
| 2026-05-07 19:00 | 22.80433 | -80.16772 | 36028 ft | 446 kts | 282° |
| 2026-05-07 19:01 | 22.81402 | -80.22305 | 36030 ft | 446 kts | 282° |
| 2026-05-07 19:01 | 22.82557 | -80.28909 | 36026 ft | 446 kts | 282° |
| 2026-05-07 19:02 | 22.83700 | -80.35470 | 36026 ft | 446 kts | 282° |
| 2026-05-07 19:02 | 22.84851 | -80.42085 | 36022 ft | 446 kts | 282° |
| 2026-05-07 19:03 | 22.85997 | -80.48696 | 36023 ft | 446 kts | 282° |
| 2026-05-07 19:03 | 22.87143 | -80.55311 | 36020 ft | 446 kts | 282° |
| 2026-05-07 19:04 | 22.88285 | -80.61923 | 36017 ft | 446 kts | 282° |
| 2026-05-07 19:04 | 22.89422 | -80.68536 | 36017 ft | 446 kts | 282° |
| 2026-05-07 19:05 | 22.90557 | -80.75148 | 36018 ft | 446 kts | 282° |
| 2026-05-07 19:05 | 22.91694 | -80.81782 | 35653 ft | 453 kts | 282° |
| 2026-05-07 19:05 | 22.92265 | -80.85128 | 35122 ft | 449 kts | 282° |
| 2026-05-07 19:06 | 22.92829 | -80.88445 | 34605 ft | 445 kts | 282° |
| 2026-05-07 19:06 | 22.93948 | -80.94997 | 33551 ft | 438 kts | 281° |
| 2026-05-07 19:06 | 22.94498 | -80.98241 | 32997 ft | 435 kts | 281° |
| 2026-05-07 19:07 | 22.95043 | -81.01462 | 32459 ft | 433 kts | 281° |
| 2026-05-07 19:07 | 22.95586 | -81.04663 | 31929 ft | 430 kts | 281° |
| 2026-05-07 19:07 | 22.96129 | -81.07849 | 31414 ft | 429 kts | 281° |
| 2026-05-07 19:07 | 22.96666 | -81.11022 | 30915 ft | 427 kts | 281° |
| 2026-05-07 19:08 | 22.97199 | -81.14188 | 30420 ft | 426 kts | 281° |
| 2026-05-07 19:08 | 22.97729 | -81.17341 | 29910 ft | 424 kts | 281° |
| 2026-05-07 19:08 | 22.98260 | -81.20486 | 29342 ft | 423 kts | 281° |
| 2026-05-07 19:08 | 22.98788 | -81.23624 | 28788 ft | 422 kts | 281° |
| 2026-05-07 19:09 | 22.99314 | -81.26752 | 28247 ft | 421 kts | 281° |
| 2026-05-07 19:09 | 22.99838 | -81.29868 | 27713 ft | 420 kts | 281° |
| 2026-05-07 19:09 | 23.00362 | -81.32991 | 27195 ft | 419 kts | 281° |
| 2026-05-07 19:09 | 23.00882 | -81.36098 | 26690 ft | 418 kts | 281° |
| 2026-05-07 19:10 | 23.01402 | -81.39202 | 26189 ft | 418 kts | 281° |
| 2026-05-07 19:10 | 23.01740 | -81.42323 | 25690 ft | 417 kts | 269° |
| 2026-05-07 19:10 | 23.01303 | -81.45388 | 25227 ft | 417 kts | 258° |
| 2026-05-07 19:10 | 23.00627 | -81.48452 | 24761 ft | 417 kts | 256° |
| 2026-05-07 19:11 | 22.99801 | -81.51466 | 24291 ft | 418 kts | 250° |
| 2026-05-07 19:11 | 22.98601 | -81.54341 | 23836 ft | 418 kts | 244° |
| 2026-05-07 19:11 | 22.97239 | -81.57130 | 23311 ft | 419 kts | 243° |
| 2026-05-07 19:11 | 22.95866 | -81.59915 | 22774 ft | 419 kts | 243° |
| 2026-05-07 19:12 | 22.94531 | -81.62720 | 22229 ft | 418 kts | 245° |
| 2026-05-07 19:12 | 22.93246 | -81.65552 | 21701 ft | 418 kts | 245° |
| 2026-05-07 19:12 | 22.91964 | -81.68385 | 21181 ft | 419 kts | 245° |
| 2026-05-07 19:12 | 22.90672 | -81.71216 | 20667 ft | 419 kts | 245° |
| 2026-05-07 19:13 | 22.89384 | -81.74050 | 20160 ft | 419 kts | 245° |
| 2026-05-07 19:13 | 22.88086 | -81.76891 | 19654 ft | 420 kts | 245° |
| 2026-05-07 19:13 | 22.86788 | -81.79735 | 19149 ft | 421 kts | 244° |
| 2026-05-07 19:13 | 22.85486 | -81.82585 | 18669 ft | 422 kts | 244° |
| 2026-05-07 19:14 | 22.84179 | -81.85441 | 18165 ft | 423 kts | 244° |
| 2026-05-07 19:14 | 22.82869 | -81.88304 | 17604 ft | 424 kts | 244° |
| 2026-05-07 19:14 | 22.81557 | -81.91168 | 17058 ft | 425 kts | 244° |
| 2026-05-07 19:14 | 22.80244 | -81.94037 | 16519 ft | 425 kts | 244° |
| 2026-05-07 19:15 | 22.78933 | -81.96907 | 15999 ft | 425 kts | 244° |
| 2026-05-07 19:15 | 22.77622 | -81.99774 | 15462 ft | 425 kts | 243° |
| 2026-05-07 19:15 | 22.76305 | -82.02637 | 14960 ft | 424 kts | 243° |
| 2026-05-07 19:15 | 22.74992 | -82.05491 | 14456 ft | 423 kts | 243° |
| 2026-05-07 19:16 | 22.73700 | -82.08306 | 13945 ft | 411 kts | 243° |
| 2026-05-07 19:16 | 22.72443 | -82.11036 | 13412 ft | 399 kts | 243° |
| 2026-05-07 19:16 | 22.71223 | -82.13693 | 12874 ft | 389 kts | 243° |
| 2026-05-07 19:16 | 22.70030 | -82.16287 | 12356 ft | 380 kts | 243° |
| 2026-05-07 19:17 | 22.68865 | -82.18817 | 11856 ft | 371 kts | 242° |
| 2026-05-07 19:17 | 22.67920 | -82.21379 | 11346 ft | 365 kts | 258° |
| 2026-05-07 19:17 | 22.67965 | -82.24089 | 10879 ft | 359 kts | 282° |
| 2026-05-07 19:17 | 22.68708 | -82.26637 | 10448 ft | 352 kts | 292° |
| 2026-05-07 19:18 | 22.69723 | -82.29024 | 10023 ft | 346 kts | 296° |
| 2026-05-07 19:18 | 22.70796 | -82.31333 | 9564 ft | 340 kts | 297° |
| 2026-05-07 19:18 | 22.71854 | -82.33600 | 9100 ft | 335 kts | 297° |
| 2026-05-07 19:18 | 22.72869 | -82.35849 | 8648 ft | 330 kts | 295° |
| 2026-05-07 19:19 | 22.73830 | -82.38085 | 8206 ft | 325 kts | 295° |
| 2026-05-07 19:19 | 22.74773 | -82.40297 | 7778 ft | 321 kts | 295° |
| 2026-05-07 19:19 | 22.75691 | -82.42455 | 7366 ft | 318 kts | 295° |
| 2026-05-07 19:19 | 22.76614 | -82.44617 | 6958 ft | 314 kts | 295° |
| 2026-05-07 19:20 | 22.77538 | -82.46780 | 6547 ft | 310 kts | 295° |
| 2026-05-07 19:20 | 22.78437 | -82.48889 | 6133 ft | 306 kts | 295° |
| 2026-05-07 19:20 | 22.79330 | -82.50922 | 5693 ft | 297 kts | 300° |
| 2026-05-07 19:20 | 22.80655 | -82.52539 | 5286 ft | 282 kts | 321° |
| 2026-05-07 19:21 | 22.82193 | -82.53796 | 4919 ft | 272 kts | 326° |
| 2026-05-07 19:21 | 22.83731 | -82.54931 | 4550 ft | 263 kts | 328° |
| 2026-05-07 19:21 | 22.85268 | -82.55934 | 4205 ft | 255 kts | 339° |
| 2026-05-07 19:21 | 22.86984 | -82.56089 | 3804 ft | 246 kts | 16° |
| 2026-05-07 19:22 | 22.88494 | -82.55318 | 3444 ft | 237 kts | 33° |
| 2026-05-07 19:22 | 22.89867 | -82.54364 | 3088 ft | 232 kts | 39° |
| 2026-05-07 19:22 | 22.90991 | -82.53155 | 2692 ft | 225 kts | 57° |
| 2026-05-07 19:22 | 22.91878 | -82.51760 | 2326 ft | 225 kts | 60° |
| 2026-05-07 19:23 | 22.92736 | -82.50337 | 1985 ft | 225 kts | 61° |
| 2026-05-07 19:23 | 22.93577 | -82.48920 | 1717 ft | 220 kts | 58° |
| 2026-05-07 19:23 | 22.94406 | -82.47602 | 1415 ft | 200 kts | 56° |
| 2026-05-07 19:23 | 22.95173 | -82.46468 | 1188 ft | 172 kts | 56° |
| 2026-05-07 19:24 | 22.95833 | -82.45495 | 965 ft | 150 kts | 56° |
| 2026-05-07 19:24 | 22.96424 | -82.44602 | 729 ft | 144 kts | 55° |
| 2026-05-07 19:24 | 22.97021 | -82.43717 | 529 ft | 147 kts | 52° |
| 2026-05-07 19:24 | 22.97651 | -82.42810 | 334 ft | 150 kts | 54° |
| 2026-05-07 19:25 | 22.98216 | -82.41963 | 200 ft | 122 kts | 54° |
| 2026-05-07 19:25 | 22.98641 | -82.41326 | 200 ft | 90 kts | 54° |
| 2026-05-07 19:25 | 22.98933 | -82.40886 | 203 ft | 48 kts | 54° |
| 2026-05-07 19:25 | 22.99116 | -82.40611 | 198 ft | 40 kts | 54° |
| 2026-05-07 19:26 | 22.99246 | -82.40435 | 199 ft | 22 kts | 27° |
| 2026-05-07 19:26 | 22.99377 | -82.40404 | 201 ft | 13 kts | 8° |
| 2026-05-07 19:26 | 22.99465 | -82.40396 | 205 ft | 13 kts | 349° |
| 2026-05-07 19:26 | 22.99539 | -82.40445 | 204 ft | 13 kts | 323° |
| 2026-05-07 19:27 | 22.99613 | -82.40504 | 201 ft | 13 kts | 323° |
| 2026-05-07 19:27 | 22.99666 | -82.40577 | 201 ft | 12 kts | 281° |
| 2026-05-07 19:27 | 22.99664 | -82.40628 | 198 ft | 0 kts | 261° |